sensor_id;sensor_type;location;lat;lon;timestamp;pressure;altitude;pressure_sealevel;temperature;humidity
15382;BME280;7789;51.364;12.358;2023-03-18T00:04:24;99802.13;;;11.82;49.92
15382;BME280;7789;51.364;12.358;2023-03-18T00:09:29;99800.13;;;11.76;50.67
15382;BME280;7789;51.364;12.358;2023-03-18T00:14:38;99799.31;;;11.76;50.63
15382;BME280;7789;51.364;12.358;2023-03-18T00:19:46;99797.66;;;11.75;50.75
15382;BME280;7789;51.364;12.358;2023-03-18T00:24:51;99806.75;;;11.71;50.33
15382;BME280;7789;51.364;12.358;2023-03-18T00:29:55;99793.97;;;11.68;50.24
15382;BME280;7789;51.364;12.358;2023-03-18T00:35:18;99800.03;;;11.68;51.10
15382;BME280;7789;51.364;12.358;2023-03-18T00:40:25;99799.63;;;11.63;50.88
15382;BME280;7789;51.364;12.358;2023-03-18T00:45:45;99794.56;;;11.62;50.69
15382;BME280;7789;51.364;12.358;2023-03-18T00:50:51;99800.91;;;11.59;51.70
15382;BME280;7789;51.364;12.358;2023-03-18T00:55:56;99800.22;;;11.57;51.62
15382;BME280;7789;51.364;12.358;2023-03-18T01:01:00;99799.81;;;11.52;51.81
15382;BME280;7789;51.364;12.358;2023-03-18T01:06:07;99793.06;;;11.50;51.93
15382;BME280;7789;51.364;12.358;2023-03-18T01:11:13;99801.50;;;11.44;52.33
15382;BME280;7789;51.364;12.358;2023-03-18T01:16:16;99797.09;;;11.44;52.22
15382;BME280;7789;51.364;12.358;2023-03-18T01:21:24;99788.13;;;11.47;52.16
15382;BME280;7789;51.364;12.358;2023-03-18T01:26:32;99793.19;;;11.48;52.26
15382;BME280;7789;51.364;12.358;2023-03-18T01:31:37;99792.41;;;11.48;51.94
15382;BME280;7789;51.364;12.358;2023-03-18T01:36:47;99782.34;;;11.43;52.21
15382;BME280;7789;51.364;12.358;2023-03-18T01:41:51;99786.91;;;11.41;51.70
15382;BME280;7789;51.364;12.358;2023-03-18T01:46:56;99786.25;;;11.39;52.54
15382;BME280;7789;51.364;12.358;2023-03-18T01:52:07;99788.00;;;11.39;52.91
15382;BME280;7789;51.364;12.358;2023-03-18T01:57:15;99791.75;;;11.36;53.04
15382;BME280;7789;51.364;12.358;2023-03-18T02:02:21;99789.97;;;11.37;53.54
15382;BME280;7789;51.364;12.358;2023-03-18T02:07:29;99796.03;;;11.37;52.52
15382;BME280;7789;51.364;12.358;2023-03-18T02:12:40;99791.75;;;11.36;53.44
15382;BME280;7789;51.364;12.358;2023-03-18T02:17:51;99794.38;;;11.36;53.42
15382;BME280;7789;51.364;12.358;2023-03-18T02:23:03;99790.25;;;11.34;53.56
15382;BME280;7789;51.364;12.358;2023-03-18T02:28:13;99794.94;;;11.30;53.71
15382;BME280;7789;51.364;12.358;2023-03-18T02:33:28;99807.50;;;11.27;53.35
15382;BME280;7789;51.364;12.358;2023-03-18T02:38:34;99797.34;;;11.24;53.74
15382;BME280;7789;51.364;12.358;2023-03-18T02:43:40;99807.94;;;11.22;54.68
15382;BME280;7789;51.364;12.358;2023-03-18T02:48:46;99817.72;;;11.20;54.29
15382;BME280;7789;51.364;12.358;2023-03-18T02:53:52;99817.47;;;11.14;54.82
15382;BME280;7789;51.364;12.358;2023-03-18T02:58:59;99819.53;;;11.10;53.67
15382;BME280;7789;51.364;12.358;2023-03-18T03:04:05;99823.69;;;11.03;54.69
15382;BME280;7789;51.364;12.358;2023-03-18T03:09:12;99826.84;;;10.98;54.92
15382;BME280;7789;51.364;12.358;2023-03-18T03:14:19;99822.88;;;10.94;55.12
15382;BME280;7789;51.364;12.358;2023-03-18T03:19:27;99830.19;;;10.90;55.58
15382;BME280;7789;51.364;12.358;2023-03-18T03:24:31;99837.31;;;10.88;55.12
15382;BME280;7789;51.364;12.358;2023-03-18T03:29:39;99846.00;;;10.89;54.60
15382;BME280;7789;51.364;12.358;2023-03-18T03:34:46;99840.09;;;10.87;55.89
15382;BME280;7789;51.364;12.358;2023-03-18T03:39:51;99838.44;;;10.86;55.10
15382;BME280;7789;51.364;12.358;2023-03-18T03:44:57;99839.25;;;10.86;56.22
15382;BME280;7789;51.364;12.358;2023-03-18T03:50:06;99845.47;;;10.85;55.63
15382;BME280;7789;51.364;12.358;2023-03-18T03:55:12;99851.66;;;10.84;56.03
15382;BME280;7789;51.364;12.358;2023-03-18T04:00:25;99850.84;;;10.84;56.24
15382;BME280;7789;51.364;12.358;2023-03-18T04:05:31;99851.94;;;10.81;56.20
15382;BME280;7789;51.364;12.358;2023-03-18T04:10:37;99858.25;;;10.79;56.12
15382;BME280;7789;51.364;12.358;2023-03-18T04:15:46;99862.00;;;10.76;57.38
15382;BME280;7789;51.364;12.358;2023-03-18T04:20:51;99864.06;;;10.73;57.20
15382;BME280;7789;51.364;12.358;2023-03-18T04:25:56;99867.63;;;10.72;56.83
15382;BME280;7789;51.364;12.358;2023-03-18T04:31:04;99863.22;;;10.72;57.41
15382;BME280;7789;51.364;12.358;2023-03-18T04:36:10;99862.41;;;10.72;57.84
15382;BME280;7789;51.364;12.358;2023-03-18T04:41:17;99867.63;;;10.72;57.75
15382;BME280;7789;51.364;12.358;2023-03-18T04:46:23;99859.50;;;10.75;57.31
15382;BME280;7789;51.364;12.358;2023-03-18T04:51:31;99871.63;;;10.76;57.26
15382;BME280;7789;51.364;12.358;2023-03-18T04:56:35;99869.97;;;10.75;58.16
15382;BME280;7789;51.364;12.358;2023-03-18T05:01:41;99863.66;;;10.77;58.25
15382;BME280;7789;51.364;12.358;2023-03-18T05:06:46;99875.47;;;10.81;57.54
15382;BME280;7789;51.364;12.358;2023-03-18T05:11:51;99889.38;;;10.82;58.33
15382;BME280;7789;51.364;12.358;2023-03-18T05:16:57;99881.94;;;10.87;58.75
15382;BME280;7789;51.364;12.358;2023-03-18T05:22:03;99878.63;;;10.85;58.61
15382;BME280;7789;51.364;12.358;2023-03-18T05:27:07;99873.25;;;10.86;58.77
15382;BME280;7789;51.364;12.358;2023-03-18T05:32:17;99871.59;;;10.85;58.84
15382;BME280;7789;51.364;12.358;2023-03-18T05:37:22;99869.00;;;10.85;59.03
15382;BME280;7789;51.364;12.358;2023-03-18T05:42:31;99875.06;;;10.86;58.79
15382;BME280;7789;51.364;12.358;2023-03-18T05:47:49;99876.56;;;10.88;58.83
15382;BME280;7789;51.364;12.358;2023-03-18T05:52:55;99877.09;;;10.92;58.71
15382;BME280;7789;51.364;12.358;2023-03-18T05:58:01;99883.84;;;10.94;59.78
15382;BME280;7789;51.364;12.358;2023-03-18T06:03:07;99883.28;;;11.00;59.76
15382;BME280;7789;51.364;12.358;2023-03-18T06:08:12;99892.09;;;11.08;59.87
15382;BME280;7789;51.364;12.358;2023-03-18T06:13:16;99898.94;;;11.19;59.11
15382;BME280;7789;51.364;12.358;2023-03-18T06:18:21;99907.75;;;11.27;60.20
15382;BME280;7789;51.364;12.358;2023-03-18T06:23:26;99903.31;;;11.37;58.93
15382;BME280;7789;51.364;12.358;2023-03-18T06:28:30;99891.97;;;11.46;59.50
15382;BME280;7789;51.364;12.358;2023-03-18T06:33:36;99896.97;;;11.59;59.40
15382;BME280;7789;51.364;12.358;2023-03-18T06:38:40;99911.25;;;11.64;59.01
15382;BME280;7789;51.364;12.358;2023-03-18T06:43:47;99917.56;;;11.71;59.41
15382;BME280;7789;51.364;12.358;2023-03-18T06:48:57;99915.94;;;11.70;58.61
15382;BME280;7789;51.364;12.358;2023-03-18T06:54:02;99915.88;;;11.80;58.57
15382;BME280;7789;51.364;12.358;2023-03-18T06:59:07;99919.91;;;12.28;58.37
15382;BME280;7789;51.364;12.358;2023-03-18T07:04:20;99930.19;;;12.39;58.11
15382;BME280;7789;51.364;12.358;2023-03-18T07:09:29;99931.31;;;12.37;58.34
15382;BME280;7789;51.364;12.358;2023-03-18T07:14:34;99948.38;;;12.41;58.27
15382;BME280;7789;51.364;12.358;2023-03-18T07:19:39;99955.25;;;12.42;57.97
15382;BME280;7789;51.364;12.358;2023-03-18T07:24:45;99949.88;;;12.43;58.56
15382;BME280;7789;51.364;12.358;2023-03-18T07:29:51;99939.78;;;12.48;58.48
15382;BME280;7789;51.364;12.358;2023-03-18T07:34:58;99938.47;;;12.62;58.33
15382;BME280;7789;51.364;12.358;2023-03-18T07:40:06;99950.28;;;12.83;57.79
15382;BME280;7789;51.364;12.358;2023-03-18T07:45:11;99949.31;;;13.36;56.72
15382;BME280;7789;51.364;12.358;2023-03-18T07:50:26;99948.13;;;13.56;56.13
15382;BME280;7789;51.364;12.358;2023-03-18T07:55:31;99967.66;;;13.79;55.54
15382;BME280;7789;51.364;12.358;2023-03-18T08:00:35;99967.88;;;13.94;55.32
15382;BME280;7789;51.364;12.358;2023-03-18T08:05:44;99964.59;;;13.92;55.30
15382;BME280;7789;51.364;12.358;2023-03-18T08:10:49;99974.72;;;13.87;55.44
15382;BME280;7789;51.364;12.358;2023-03-18T08:15:54;99987.22;;;13.85;55.81
15382;BME280;7789;51.364;12.358;2023-03-18T08:21:00;99987.53;;;13.82;55.67
15382;BME280;7789;51.364;12.358;2023-03-18T08:26:05;99991.59;;;13.76;55.58
15382;BME280;7789;51.364;12.358;2023-03-18T08:31:13;99990.47;;;13.79;55.32
15382;BME280;7789;51.364;12.358;2023-03-18T08:36:24;99998.34;;;13.79;55.47
15382;BME280;7789;51.364;12.358;2023-03-18T08:41:30;99994.75;;;13.80;55.77
15382;BME280;7789;51.364;12.358;2023-03-18T08:46:34;100003.59;;;13.79;55.63
15382;BME280;7789;51.364;12.358;2023-03-18T08:51:40;100001.59;;;13.73;55.92
15382;BME280;7789;51.364;12.358;2023-03-18T08:56:46;99991.91;;;13.73;55.79
15382;BME280;7789;51.364;12.358;2023-03-18T09:01:50;99996.59;;;13.87;55.91
15382;BME280;7789;51.364;12.358;2023-03-18T09:06:58;100001.06;;;13.95;55.97
15382;BME280;7789;51.364;12.358;2023-03-18T09:12:07;99997.59;;;14.20;55.91
15382;BME280;7789;51.364;12.358;2023-03-18T09:17:17;100001.69;;;14.48;55.42
15382;BME280;7789;51.364;12.358;2023-03-18T09:22:29;99995.16;;;14.68;55.44
15382;BME280;7789;51.364;12.358;2023-03-18T09:27:36;100002.13;;;14.77;54.59
15382;BME280;7789;51.364;12.358;2023-03-18T09:32:43;100002.47;;;14.97;55.72
15382;BME280;7789;51.364;12.358;2023-03-18T09:37:53;100005.63;;;15.25;55.10
15382;BME280;7789;51.364;12.358;2023-03-18T09:43:08;99993.31;;;15.49;54.44
15382;BME280;7789;51.364;12.358;2023-03-18T09:48:37;100007.59;;;15.87;54.54
15382;BME280;7789;51.364;12.358;2023-03-18T09:53:52;100013.72;;;16.34;53.92
15382;BME280;7789;51.364;12.358;2023-03-18T09:59:00;100001.34;;;17.03;53.96
15382;BME280;7789;51.364;12.358;2023-03-18T10:04:10;100006.06;;;17.38;53.00
15382;BME280;7789;51.364;12.358;2023-03-18T10:09:26;100004.06;;;17.62;52.04
15382;BME280;7789;51.364;12.358;2023-03-18T10:14:38;100007.81;;;17.82;50.63
15382;BME280;7789;51.364;12.358;2023-03-18T10:19:49;100003.75;;;18.09;51.28
15382;BME280;7789;51.364;12.358;2023-03-18T10:25:04;100010.97;;;18.44;50.83
15382;BME280;7789;51.364;12.358;2023-03-18T10:30:25;100005.97;;;18.84;50.06
15382;BME280;7789;51.364;12.358;2023-03-18T10:35:37;99993.03;;;18.95;49.38
15382;BME280;7789;51.364;12.358;2023-03-18T10:40:45;100008.25;;;19.22;48.34
15382;BME280;7789;51.364;12.358;2023-03-18T10:45:59;100002.16;;;19.07;48.40
15382;BME280;7789;51.364;12.358;2023-03-18T10:51:15;100013.31;;;19.38;48.41
15382;BME280;7789;51.364;12.358;2023-03-18T10:56:29;100014.06;;;19.53;46.84
15382;BME280;7789;51.364;12.358;2023-03-18T11:01:37;100013.16;;;19.25;47.90
15382;BME280;7789;51.364;12.358;2023-03-18T11:06:49;100007.38;;;19.36;48.33
15382;BME280;7789;51.364;12.358;2023-03-18T11:12:02;100015.19;;;19.44;48.79
15382;BME280;7789;51.364;12.358;2023-03-18T11:17:19;100013.38;;;19.24;48.64
15382;BME280;7789;51.364;12.358;2023-03-18T11:22:24;100009.75;;;19.31;49.65
15382;BME280;7789;51.364;12.358;2023-03-18T11:27:46;100002.31;;;19.41;49.72
15382;BME280;7789;51.364;12.358;2023-03-18T11:32:57;99999.22;;;19.59;49.67
15382;BME280;7789;51.364;12.358;2023-03-18T11:38:05;100005.38;;;19.66;50.76
15382;BME280;7789;51.364;12.358;2023-03-18T11:43:22;99995.09;;;19.84;50.25
15382;BME280;7789;51.364;12.358;2023-03-18T11:48:29;99989.34;;;19.80;50.57
15382;BME280;7789;51.364;12.358;2023-03-18T11:53:43;99989.88;;;19.97;50.80
15382;BME280;7789;51.364;12.358;2023-03-18T11:59:32;99985.94;;;20.14;51.00
15382;BME280;7789;51.364;12.358;2023-03-18T12:05:14;99985.97;;;20.20;51.08
15382;BME280;7789;51.364;12.358;2023-03-18T12:10:29;99985.66;;;20.02;51.78
15382;BME280;7789;51.364;12.358;2023-03-18T12:15:49;99993.84;;;19.80;50.99
15382;BME280;7789;51.364;12.358;2023-03-18T12:21:01;99986.47;;;19.75;51.49
15382;BME280;7789;51.364;12.358;2023-03-18T12:26:11;99992.84;;;19.81;51.43
15382;BME280;7789;51.364;12.358;2023-03-18T12:31:47;99983.63;;;20.04;52.11
15382;BME280;7789;51.364;12.358;2023-03-18T12:37:04;99979.25;;;20.24;51.00
15382;BME280;7789;51.364;12.358;2023-03-18T12:42:17;99976.78;;;20.23;51.67
15382;BME280;7789;51.364;12.358;2023-03-18T12:47:35;99978.06;;;20.27;52.03
15382;BME280;7789;51.364;12.358;2023-03-18T12:52:57;99970.66;;;20.22;51.85
15382;BME280;7789;51.364;12.358;2023-03-18T12:58:16;99980.41;;;20.15;51.75
15382;BME280;7789;51.364;12.358;2023-03-18T13:03:31;99969.00;;;20.15;52.05
15382;BME280;7789;51.364;12.358;2023-03-18T13:14:15;99965.13;;;20.17;52.18
15382;BME280;7789;51.364;12.358;2023-03-18T13:19:25;99959.81;;;20.17;51.62
15382;BME280;7789;51.364;12.358;2023-03-18T13:24:44;99957.97;;;20.18;52.02
15382;BME280;7789;51.364;12.358;2023-03-18T13:30:04;99965.75;;;20.19;51.99
15382;BME280;7789;51.364;12.358;2023-03-18T13:46:38;99954.66;;;20.09;52.21
15382;BME280;7789;51.364;12.358;2023-03-18T13:51:58;99944.44;;;20.06;52.14
15382;BME280;7789;51.364;12.358;2023-03-18T13:57:17;99943.53;;;19.99;52.61
15382;BME280;7789;51.364;12.358;2023-03-18T14:02:59;99946.81;;;19.95;52.16
15382;BME280;7789;51.364;12.358;2023-03-18T14:08:43;99934.59;;;20.00;52.34
15382;BME280;7789;51.364;12.358;2023-03-18T14:13:49;99930.56;;;20.04;52.79
15382;BME280;7789;51.364;12.358;2023-03-18T14:19:00;99933.75;;;20.00;52.56
15382;BME280;7789;51.364;12.358;2023-03-18T14:24:11;99943.72;;;19.91;52.55
15382;BME280;7789;51.364;12.358;2023-03-18T14:29:37;99937.16;;;19.87;52.42
15382;BME280;7789;51.364;12.358;2023-03-18T14:35:03;99931.84;;;19.87;52.61
15382;BME280;7789;51.364;12.358;2023-03-18T14:40:35;99926.94;;;19.84;53.12
15382;BME280;7789;51.364;12.358;2023-03-18T14:45:42;99928.31;;;19.80;52.65
15382;BME280;7789;51.364;12.358;2023-03-18T14:50:52;99933.59;;;19.74;53.31
15382;BME280;7789;51.364;12.358;2023-03-18T14:56:03;99928.66;;;19.71;52.99
15382;BME280;7789;51.364;12.358;2023-03-18T15:01:13;99925.34;;;19.62;53.14
15382;BME280;7789;51.364;12.358;2023-03-18T15:06:21;99920.00;;;19.56;53.13
15382;BME280;7789;51.364;12.358;2023-03-18T15:11:37;99915.91;;;19.53;53.05
15382;BME280;7789;51.364;12.358;2023-03-18T15:16:48;99920.56;;;19.45;53.51
15382;BME280;7789;51.364;12.358;2023-03-18T15:21:57;99923.31;;;19.37;53.67
15382;BME280;7789;51.364;12.358;2023-03-18T15:27:16;99917.00;;;19.38;53.83
15382;BME280;7789;51.364;12.358;2023-03-18T15:32:30;99922.31;;;19.38;54.40
15382;BME280;7789;51.364;12.358;2023-03-18T15:37:41;99920.69;;;19.37;53.77
15382;BME280;7789;51.364;12.358;2023-03-18T15:42:48;99921.94;;;19.41;53.80
15382;BME280;7789;51.364;12.358;2023-03-18T15:48:06;99926.41;;;19.40;53.44
15382;BME280;7789;51.364;12.358;2023-03-18T15:53:23;99921.69;;;19.36;53.73
15382;BME280;7789;51.364;12.358;2023-03-18T15:58:39;99924.66;;;19.26;53.71
15382;BME280;7789;51.364;12.358;2023-03-18T16:03:53;99928.63;;;19.16;53.92
15382;BME280;7789;51.364;12.358;2023-03-18T16:08:57;99926.13;;;19.08;54.02
15382;BME280;7789;51.364;12.358;2023-03-18T16:14:37;99931.38;;;19.01;54.05
15382;BME280;7789;51.364;12.358;2023-03-18T16:19:48;99931.69;;;18.92;54.33
15382;BME280;7789;51.364;12.358;2023-03-18T16:25:01;99932.34;;;18.79;54.84
15382;BME280;7789;51.364;12.358;2023-03-18T16:30:26;99931.47;;;18.73;54.88
15382;BME280;7789;51.364;12.358;2023-03-18T16:35:35;99940.91;;;18.61;55.11
15382;BME280;7789;51.364;12.358;2023-03-18T16:40:39;99944.47;;;18.53;55.41
15382;BME280;7789;51.364;12.358;2023-03-18T16:46:03;99947.44;;;18.44;55.89
15382;BME280;7789;51.364;12.358;2023-03-18T16:51:13;99947.94;;;18.33;56.11
15382;BME280;7789;51.364;12.358;2023-03-18T16:56:21;99949.81;;;18.24;56.35
15382;BME280;7789;51.364;12.358;2023-03-18T17:01:26;99944.97;;;18.13;56.44
15382;BME280;7789;51.364;12.358;2023-03-18T17:06:36;99949.72;;;18.03;57.05
15382;BME280;7789;51.364;12.358;2023-03-18T17:11:44;99962.78;;;17.90;57.64
15382;BME280;7789;51.364;12.358;2023-03-18T17:16:55;99968.88;;;17.76;57.82
15382;BME280;7789;51.364;12.358;2023-03-18T17:22:13;99965.50;;;17.68;58.23
15382;BME280;7789;51.364;12.358;2023-03-18T17:27:23;99965.94;;;17.57;58.46
15382;BME280;7789;51.364;12.358;2023-03-18T17:32:30;99977.75;;;17.46;58.59
15382;BME280;7789;51.364;12.358;2023-03-18T17:37:33;99980.00;;;17.35;59.29
15382;BME280;7789;51.364;12.358;2023-03-18T17:42:39;99986.16;;;17.27;59.89
15382;BME280;7789;51.364;12.358;2023-03-18T17:47:48;99977.63;;;17.17;60.58
15382;BME280;7789;51.364;12.358;2023-03-18T17:53:03;99980.69;;;17.06;61.15
15382;BME280;7789;51.364;12.358;2023-03-18T17:58:11;99978.94;;;16.99;61.72
15382;BME280;7789;51.364;12.358;2023-03-18T18:03:24;99980.81;;;16.90;61.94
15382;BME280;7789;51.364;12.358;2023-03-18T18:08:29;99988.13;;;16.80;62.40
15382;BME280;7789;51.364;12.358;2023-03-18T18:13:35;99981.91;;;16.74;62.53
15382;BME280;7789;51.364;12.358;2023-03-18T18:18:52;99982.78;;;16.66;63.46
15382;BME280;7789;51.364;12.358;2023-03-18T18:23:58;99976.72;;;16.58;62.89
15382;BME280;7789;51.364;12.358;2023-03-18T18:29:05;99983.84;;;16.49;63.72
15382;BME280;7789;51.364;12.358;2023-03-18T18:34:18;99983.88;;;16.41;64.05
15382;BME280;7789;51.364;12.358;2023-03-18T18:39:22;99984.88;;;16.32;64.39
15382;BME280;7789;51.364;12.358;2023-03-18T18:44:28;99992.66;;;16.26;64.29
15382;BME280;7789;51.364;12.358;2023-03-18T18:49:41;99995.00;;;16.21;64.57
15382;BME280;7789;51.364;12.358;2023-03-18T18:54:45;99991.03;;;16.17;64.60
15382;BME280;7789;51.364;12.358;2023-03-18T18:59:48;99991.72;;;16.11;65.03
15382;BME280;7789;51.364;12.358;2023-03-18T19:04:54;99997.50;;;16.06;65.30
15382;BME280;7789;51.364;12.358;2023-03-18T19:09:57;99991.25;;;15.99;65.58
15382;BME280;7789;51.364;12.358;2023-03-18T19:15:01;99997.22;;;15.93;65.03
15382;BME280;7789;51.364;12.358;2023-03-18T19:20:24;99990.59;;;15.89;66.04
15382;BME280;7789;51.364;12.358;2023-03-18T19:25:28;99987.66;;;15.84;66.02
15382;BME280;7789;51.364;12.358;2023-03-18T19:30:32;100000.19;;;15.82;65.65
15382;BME280;7789;51.364;12.358;2023-03-18T19:35:39;99993.78;;;15.77;66.12
15382;BME280;7789;51.364;12.358;2023-03-18T19:40:48;100002.66;;;15.76;65.58
15382;BME280;7789;51.364;12.358;2023-03-18T19:46:10;99994.13;;;15.74;66.40
15382;BME280;7789;51.364;12.358;2023-03-18T19:51:23;99993.94;;;15.67;65.97
15382;BME280;7789;51.364;12.358;2023-03-18T19:56:39;99999.06;;;15.61;66.26
15382;BME280;7789;51.364;12.358;2023-03-18T20:01:50;99991.00;;;15.54;66.31
15382;BME280;7789;51.364;12.358;2023-03-18T20:06:58;100007.31;;;15.42;66.05
15382;BME280;7789;51.364;12.358;2023-03-18T20:12:02;100012.72;;;15.24;66.14
15382;BME280;7789;51.364;12.358;2023-03-18T20:17:26;100017.47;;;15.13;66.75
15382;BME280;7789;51.364;12.358;2023-03-18T20:22:33;100026.34;;;15.04;66.51
15382;BME280;7789;51.364;12.358;2023-03-18T20:27:38;100019.25;;;14.96;65.81
15382;BME280;7789;51.364;12.358;2023-03-18T20:32:41;100017.09;;;14.92;65.70
15382;BME280;7789;51.364;12.358;2023-03-18T20:37:47;100036.50;;;14.83;65.46
15382;BME280;7789;51.364;12.358;2023-03-18T20:42:50;100025.44;;;14.72;65.46
15382;BME280;7789;51.364;12.358;2023-03-18T20:47:56;100036.09;;;14.62;65.67
15382;BME280;7789;51.364;12.358;2023-03-18T20:53:03;100032.59;;;14.54;64.77
15382;BME280;7789;51.364;12.358;2023-03-18T20:58:13;100036.19;;;14.45;64.94
15382;BME280;7789;51.364;12.358;2023-03-18T21:03:23;100028.25;;;14.37;64.85
15382;BME280;7789;51.364;12.358;2023-03-18T21:08:31;100036.25;;;14.27;64.81
15382;BME280;7789;51.364;12.358;2023-03-18T21:13:38;100038.88;;;14.19;64.79
15382;BME280;7789;51.364;12.358;2023-03-18T21:18:47;100038.94;;;14.10;65.17
15382;BME280;7789;51.364;12.358;2023-03-18T21:23:53;100049.56;;;14.00;65.22
15382;BME280;7789;51.364;12.358;2023-03-18T21:28:58;100052.66;;;13.96;65.07
15382;BME280;7789;51.364;12.358;2023-03-18T21:34:02;100049.00;;;13.89;65.35
15382;BME280;7789;51.364;12.358;2023-03-18T21:39:08;100044.34;;;13.83;65.31
15382;BME280;7789;51.364;12.358;2023-03-18T21:44:12;100045.78;;;13.77;65.59
15382;BME280;7789;51.364;12.358;2023-03-18T21:49:17;100040.63;;;13.68;66.21
15382;BME280;7789;51.364;12.358;2023-03-18T21:54:32;100038.31;;;13.65;66.38
15382;BME280;7789;51.364;12.358;2023-03-18T21:59:36;100048.78;;;13.57;66.82
15382;BME280;7789;51.364;12.358;2023-03-18T22:04:40;100036.09;;;13.52;66.88
15382;BME280;7789;51.364;12.358;2023-03-18T22:09:47;100040.81;;;13.49;67.44
15382;BME280;7789;51.364;12.358;2023-03-18T22:14:54;100038.81;;;13.43;67.62
15382;BME280;7789;51.364;12.358;2023-03-18T22:20:01;100038.56;;;13.36;67.92
15382;BME280;7789;51.364;12.358;2023-03-18T22:25:15;100041.81;;;13.30;68.39
15382;BME280;7789;51.364;12.358;2023-03-18T22:30:30;100048.19;;;13.28;68.23
15382;BME280;7789;51.364;12.358;2023-03-18T22:35:35;100042.94;;;13.28;68.58
15382;BME280;7789;51.364;12.358;2023-03-18T22:40:46;100037.16;;;13.24;69.17
15382;BME280;7789;51.364;12.358;2023-03-18T22:45:53;100038.44;;;13.20;68.68
15382;BME280;7789;51.364;12.358;2023-03-18T22:50:59;100041.66;;;13.14;68.75
15382;BME280;7789;51.364;12.358;2023-03-18T22:56:10;100046.06;;;13.14;69.51
15382;BME280;7789;51.364;12.358;2023-03-18T23:01:15;100051.75;;;13.09;69.49
15382;BME280;7789;51.364;12.358;2023-03-18T23:06:22;100047.97;;;13.04;69.49
15382;BME280;7789;51.364;12.358;2023-03-18T23:11:29;100051.69;;;13.01;69.89
15382;BME280;7789;51.364;12.358;2023-03-18T23:16:34;100054.63;;;12.98;70.16
15382;BME280;7789;51.364;12.358;2023-03-18T23:21:50;100055.72;;;12.96;70.00
15382;BME280;7789;51.364;12.358;2023-03-18T23:26:57;100053.09;;;12.96;70.15
15382;BME280;7789;51.364;12.358;2023-03-18T23:32:06;100045.63;;;12.91;70.29
15382;BME280;7789;51.364;12.358;2023-03-18T23:37:11;100045.28;;;12.87;70.66
15382;BME280;7789;51.364;12.358;2023-03-18T23:42:18;100045.56;;;12.84;70.74
15382;BME280;7789;51.364;12.358;2023-03-18T23:47:22;100050.28;;;12.80;70.12
15382;BME280;7789;51.364;12.358;2023-03-18T23:52:27;100048.94;;;12.76;70.48
15382;BME280;7789;51.364;12.358;2023-03-18T23:57:33;100049.91;;;12.75;70.76
